sensor_id;sensor_type;location;lat;lon;timestamp;temperature;humidity
22917;DHT22;11624;53.250;7.456;2023-06-14T00:00:04;23.08;36.79
22917;DHT22;11624;53.250;7.456;2023-06-14T00:02:34;23.03;36.85
22917;DHT22;11624;53.250;7.456;2023-06-14T00:05:03;23.03;36.93
22917;DHT22;11624;53.250;7.456;2023-06-14T00:07:38;22.99;36.95
22917;DHT22;11624;53.250;7.456;2023-06-14T00:10:10;22.94;37.46
22917;DHT22;11624;53.250;7.456;2023-06-14T00:12:39;22.93;37.45
22917;DHT22;11624;53.250;7.456;2023-06-14T00:15:08;22.92;37.62
22917;DHT22;11624;53.250;7.456;2023-06-14T00:17:37;22.91;37.82
22917;DHT22;11624;53.250;7.456;2023-06-14T00:20:06;22.85;37.91
22917;DHT22;11624;53.250;7.456;2023-06-14T00:22:37;22.84;38.01
22917;DHT22;11624;53.250;7.456;2023-06-14T00:25:06;22.83;38.04
22917;DHT22;11624;53.250;7.456;2023-06-14T00:27:54;22.79;38.21
22917;DHT22;11624;53.250;7.456;2023-06-14T00:30:23;22.77;38.40
22917;DHT22;11624;53.250;7.456;2023-06-14T00:32:51;22.69;38.68
22917;DHT22;11624;53.250;7.456;2023-06-14T00:35:20;22.68;38.71
22917;DHT22;11624;53.250;7.456;2023-06-14T00:37:49;22.66;38.74
22917;DHT22;11624;53.250;7.456;2023-06-14T00:40:17;22.64;38.85
22917;DHT22;11624;53.250;7.456;2023-06-14T00:42:45;22.62;38.89
22917;DHT22;11624;53.250;7.456;2023-06-14T00:45:15;22.58;39.04
22917;DHT22;11624;53.250;7.456;2023-06-14T00:47:43;22.56;39.21
22917;DHT22;11624;53.250;7.456;2023-06-14T00:50:13;22.52;39.34
22917;DHT22;11624;53.250;7.456;2023-06-14T00:52:41;22.48;39.56
22917;DHT22;11624;53.250;7.456;2023-06-14T00:55:11;22.46;39.69
22917;DHT22;11624;53.250;7.456;2023-06-14T00:57:40;22.48;39.72
22917;DHT22;11624;53.250;7.456;2023-06-14T01:00:09;22.46;39.88
22917;DHT22;11624;53.250;7.456;2023-06-14T01:02:38;22.43;40.01
22917;DHT22;11624;53.250;7.456;2023-06-14T01:05:09;22.38;40.10
22917;DHT22;11624;53.250;7.456;2023-06-14T01:08:01;22.34;39.84
22917;DHT22;11624;53.250;7.456;2023-06-14T01:10:41;22.32;40.01
22917;DHT22;11624;53.250;7.456;2023-06-14T01:13:19;22.31;40.33
22917;DHT22;11624;53.250;7.456;2023-06-14T01:15:50;22.27;40.63
22917;DHT22;11624;53.250;7.456;2023-06-14T01:18:18;22.25;40.84
22917;DHT22;11624;53.250;7.456;2023-06-14T01:20:47;22.22;41.00
22917;DHT22;11624;53.250;7.456;2023-06-14T01:23:19;22.23;41.09
22917;DHT22;11624;53.250;7.456;2023-06-14T01:25:48;22.21;41.17
22917;DHT22;11624;53.250;7.456;2023-06-14T01:28:21;22.23;41.29
22917;DHT22;11624;53.250;7.456;2023-06-14T01:30:52;22.22;41.17
22917;DHT22;11624;53.250;7.456;2023-06-14T01:33:21;22.22;41.37
22917;DHT22;11624;53.250;7.456;2023-06-14T01:35:51;22.18;41.44
22917;DHT22;11624;53.250;7.456;2023-06-14T01:38:25;22.16;41.58
22917;DHT22;11624;53.250;7.456;2023-06-14T01:40:55;22.11;41.80
22917;DHT22;11624;53.250;7.456;2023-06-14T01:43:25;22.09;41.93
22917;DHT22;11624;53.250;7.456;2023-06-14T01:45:55;22.07;41.97
22917;DHT22;11624;53.250;7.456;2023-06-14T01:48:26;22.04;42.11
22917;DHT22;11624;53.250;7.456;2023-06-14T01:50:55;22.02;42.18
22917;DHT22;11624;53.250;7.456;2023-06-14T01:53:24;22.03;42.26
22917;DHT22;11624;53.250;7.456;2023-06-14T01:55:52;21.97;42.38
22917;DHT22;11624;53.250;7.456;2023-06-14T01:58:21;21.95;42.46
22917;DHT22;11624;53.250;7.456;2023-06-14T02:00:50;21.93;42.55
22917;DHT22;11624;53.250;7.456;2023-06-14T02:03:22;21.92;42.57
22917;DHT22;11624;53.250;7.456;2023-06-14T02:05:52;21.90;42.80
22917;DHT22;11624;53.250;7.456;2023-06-14T02:08:21;21.85;42.88
22917;DHT22;11624;53.250;7.456;2023-06-14T02:10:51;21.82;42.93
22917;DHT22;11624;53.250;7.456;2023-06-14T02:13:21;21.79;43.11
22917;DHT22;11624;53.250;7.456;2023-06-14T02:15:50;21.77;43.06
22917;DHT22;11624;53.250;7.456;2023-06-14T02:18:22;21.76;43.15
22917;DHT22;11624;53.250;7.456;2023-06-14T02:20:51;21.70;43.27
22917;DHT22;11624;53.250;7.456;2023-06-14T02:23:19;21.72;43.32
22917;DHT22;11624;53.250;7.456;2023-06-14T02:25:47;21.68;43.42
22917;DHT22;11624;53.250;7.456;2023-06-14T02:28:17;21.68;43.33
22917;DHT22;11624;53.250;7.456;2023-06-14T02:30:45;21.68;43.37
22917;DHT22;11624;53.250;7.456;2023-06-14T02:33:13;21.66;43.42
22917;DHT22;11624;53.250;7.456;2023-06-14T02:35:41;21.63;43.46
22917;DHT22;11624;53.250;7.456;2023-06-14T02:38:09;21.60;43.64
22917;DHT22;11624;53.250;7.456;2023-06-14T02:40:38;21.58;43.71
22917;DHT22;11624;53.250;7.456;2023-06-14T02:43:09;21.54;43.86
22917;DHT22;11624;53.250;7.456;2023-06-14T02:45:39;21.54;43.87
22917;DHT22;11624;53.250;7.456;2023-06-14T02:48:08;21.49;43.93
22917;DHT22;11624;53.250;7.456;2023-06-14T02:50:36;21.45;44.06
22917;DHT22;11624;53.250;7.456;2023-06-14T02:53:05;21.36;44.16
22917;DHT22;11624;53.250;7.456;2023-06-14T02:55:33;21.28;44.29
22917;DHT22;11624;53.250;7.456;2023-06-14T02:58:06;21.19;44.45
22917;DHT22;11624;53.250;7.456;2023-06-14T03:00:34;21.11;44.63
22917;DHT22;11624;53.250;7.456;2023-06-14T03:03:05;20.99;44.93
22917;DHT22;11624;53.250;7.456;2023-06-14T03:05:41;20.91;45.12
22917;DHT22;11624;53.250;7.456;2023-06-14T03:08:13;20.85;45.31
22917;DHT22;11624;53.250;7.456;2023-06-14T03:10:43;20.80;45.43
22917;DHT22;11624;53.250;7.456;2023-06-14T03:13:12;20.75;45.54
22917;DHT22;11624;53.250;7.456;2023-06-14T03:15:40;20.72;45.65
22917;DHT22;11624;53.250;7.456;2023-06-14T03:18:10;20.68;45.83
22917;DHT22;11624;53.250;7.456;2023-06-14T03:20:39;20.63;46.02
22917;DHT22;11624;53.250;7.456;2023-06-14T03:23:09;20.57;46.15
22917;DHT22;11624;53.250;7.456;2023-06-14T03:25:39;20.57;46.24
22917;DHT22;11624;53.250;7.456;2023-06-14T03:28:11;20.54;46.35
22917;DHT22;11624;53.250;7.456;2023-06-14T03:30:40;20.51;46.45
22917;DHT22;11624;53.250;7.456;2023-06-14T03:33:09;20.49;46.60
22917;DHT22;11624;53.250;7.456;2023-06-14T03:35:39;20.43;46.81
22917;DHT22;11624;53.250;7.456;2023-06-14T03:38:09;20.44;46.96
22917;DHT22;11624;53.250;7.456;2023-06-14T03:40:37;20.43;47.06
22917;DHT22;11624;53.250;7.456;2023-06-14T03:43:06;20.42;47.05
22917;DHT22;11624;53.250;7.456;2023-06-14T03:45:34;20.44;47.06
22917;DHT22;11624;53.250;7.456;2023-06-14T03:48:03;20.43;47.22
22917;DHT22;11624;53.250;7.456;2023-06-14T03:50:35;20.43;47.22
22917;DHT22;11624;53.250;7.456;2023-06-14T03:53:05;20.42;47.35
22917;DHT22;11624;53.250;7.456;2023-06-14T03:55:36;20.42;47.38
22917;DHT22;11624;53.250;7.456;2023-06-14T03:58:26;20.43;47.40
22917;DHT22;11624;53.250;7.456;2023-06-14T04:00:55;20.44;47.51
22917;DHT22;11624;53.250;7.456;2023-06-14T04:03:24;20.44;47.64
22917;DHT22;11624;53.250;7.456;2023-06-14T04:05:58;20.44;47.82
22917;DHT22;11624;53.250;7.456;2023-06-14T04:08:27;20.43;47.97
22917;DHT22;11624;53.250;7.456;2023-06-14T04:10:57;20.43;48.10
22917;DHT22;11624;53.250;7.456;2023-06-14T04:13:25;20.47;48.05
22917;DHT22;11624;53.250;7.456;2023-06-14T04:15:53;20.49;48.07
22917;DHT22;11624;53.250;7.456;2023-06-14T04:18:28;20.50;48.08
22917;DHT22;11624;53.250;7.456;2023-06-14T04:20:58;20.54;48.11
22917;DHT22;11624;53.250;7.456;2023-06-14T04:23:28;20.60;48.16
22917;DHT22;11624;53.250;7.456;2023-06-14T04:25:57;20.59;48.18
22917;DHT22;11624;53.250;7.456;2023-06-14T04:28:29;20.64;48.23
22917;DHT22;11624;53.250;7.456;2023-06-14T04:31:00;20.65;48.24
22917;DHT22;11624;53.250;7.456;2023-06-14T04:33:31;20.70;48.28
22917;DHT22;11624;53.250;7.456;2023-06-14T04:36:01;20.75;48.20
22917;DHT22;11624;53.250;7.456;2023-06-14T04:38:29;20.84;48.08
22917;DHT22;11624;53.250;7.456;2023-06-14T04:41:01;20.86;48.10
22917;DHT22;11624;53.250;7.456;2023-06-14T04:43:29;20.90;48.08
22917;DHT22;11624;53.250;7.456;2023-06-14T04:45:58;20.96;48.04
22917;DHT22;11624;53.250;7.456;2023-06-14T04:48:29;21.03;48.02
22917;DHT22;11624;53.250;7.456;2023-06-14T04:50:58;21.09;47.88
22917;DHT22;11624;53.250;7.456;2023-06-14T04:53:27;21.13;47.80
22917;DHT22;11624;53.250;7.456;2023-06-14T04:55:56;21.20;47.75
22917;DHT22;11624;53.250;7.456;2023-06-14T04:58:25;21.23;47.70
22917;DHT22;11624;53.250;7.456;2023-06-14T05:00:54;21.29;47.71
22917;DHT22;11624;53.250;7.456;2023-06-14T05:03:23;21.34;47.59
22917;DHT22;11624;53.250;7.456;2023-06-14T05:05:51;21.45;47.34
22917;DHT22;11624;53.250;7.456;2023-06-14T05:08:20;21.52;47.15
22917;DHT22;11624;53.250;7.456;2023-06-14T05:10:52;21.60;47.01
22917;DHT22;11624;53.250;7.456;2023-06-14T05:13:21;21.63;46.96
22917;DHT22;11624;53.250;7.456;2023-06-14T05:15:49;21.67;46.89
22917;DHT22;11624;53.250;7.456;2023-06-14T05:18:18;21.73;46.76
22917;DHT22;11624;53.250;7.456;2023-06-14T05:20:46;21.82;46.59
22917;DHT22;11624;53.250;7.456;2023-06-14T05:23:14;21.91;46.44
22917;DHT22;11624;53.250;7.456;2023-06-14T05:25:43;21.96;46.18
22917;DHT22;11624;53.250;7.456;2023-06-14T05:28:13;22.04;46.09
22917;DHT22;11624;53.250;7.456;2023-06-14T05:30:41;22.08;46.12
22917;DHT22;11624;53.250;7.456;2023-06-14T05:33:09;22.18;45.85
22917;DHT22;11624;53.250;7.456;2023-06-14T05:35:37;22.27;45.56
22917;DHT22;11624;53.250;7.456;2023-06-14T05:38:06;22.36;45.60
22917;DHT22;11624;53.250;7.456;2023-06-14T05:40:34;22.47;45.28
22917;DHT22;11624;53.250;7.456;2023-06-14T05:43:02;22.58;44.99
22917;DHT22;11624;53.250;7.456;2023-06-14T05:45:32;22.67;45.09
22917;DHT22;11624;53.250;7.456;2023-06-14T05:48:00;22.75;44.78
22917;DHT22;11624;53.250;7.456;2023-06-14T05:50:28;22.79;44.18
22917;DHT22;11624;53.250;7.456;2023-06-14T05:52:56;22.92;44.13
22917;DHT22;11624;53.250;7.456;2023-06-14T05:55:24;23.02;43.67
22917;DHT22;11624;53.250;7.456;2023-06-14T05:57:52;23.13;43.42
22917;DHT22;11624;53.250;7.456;2023-06-14T06:00:21;23.23;43.19
22917;DHT22;11624;53.250;7.456;2023-06-14T06:02:50;23.31;43.00
22917;DHT22;11624;53.250;7.456;2023-06-14T06:05:18;23.38;42.74
22917;DHT22;11624;53.250;7.456;2023-06-14T06:07:47;23.46;42.42
22917;DHT22;11624;53.250;7.456;2023-06-14T06:10:15;23.55;42.16
22917;DHT22;11624;53.250;7.456;2023-06-14T06:12:43;23.60;41.85
22917;DHT22;11624;53.250;7.456;2023-06-14T06:15:11;23.67;41.97
22917;DHT22;11624;53.250;7.456;2023-06-14T06:17:40;23.80;42.07
22917;DHT22;11624;53.250;7.456;2023-06-14T06:20:23;23.90;41.82
22917;DHT22;11624;53.250;7.456;2023-06-14T06:22:56;24.01;41.44
22917;DHT22;11624;53.250;7.456;2023-06-14T06:25:25;24.10;41.18
22917;DHT22;11624;53.250;7.456;2023-06-14T06:27:54;24.19;41.10
22917;DHT22;11624;53.250;7.456;2023-06-14T06:30:22;24.18;40.99
22917;DHT22;11624;53.250;7.456;2023-06-14T06:32:51;24.29;41.00
22917;DHT22;11624;53.250;7.456;2023-06-14T06:35:20;24.39;40.45
22917;DHT22;11624;53.250;7.456;2023-06-14T06:37:49;24.47;40.55
22917;DHT22;11624;53.250;7.456;2023-06-14T06:40:17;24.53;40.38
22917;DHT22;11624;53.250;7.456;2023-06-14T06:42:46;24.65;40.75
22917;DHT22;11624;53.250;7.456;2023-06-14T06:45:17;24.83;40.51
22917;DHT22;11624;53.250;7.456;2023-06-14T06:47:45;24.95;39.98
22917;DHT22;11624;53.250;7.456;2023-06-14T06:50:13;25.08;39.73
22917;DHT22;11624;53.250;7.456;2023-06-14T06:52:42;25.15;39.32
22917;DHT22;11624;53.250;7.456;2023-06-14T06:55:13;25.25;39.39
22917;DHT22;11624;53.250;7.456;2023-06-14T06:57:42;25.35;39.01
22917;DHT22;11624;53.250;7.456;2023-06-14T07:00:10;25.47;38.88
22917;DHT22;11624;53.250;7.456;2023-06-14T07:02:40;25.61;38.01
22917;DHT22;11624;53.250;7.456;2023-06-14T07:05:08;25.72;37.17
22917;DHT22;11624;53.250;7.456;2023-06-14T07:07:36;25.81;37.16
22917;DHT22;11624;53.250;7.456;2023-06-14T07:10:05;25.88;36.76
22917;DHT22;11624;53.250;7.456;2023-06-14T07:12:35;26.02;37.55
22917;DHT22;11624;53.250;7.456;2023-06-14T07:15:07;26.20;37.02
22917;DHT22;11624;53.250;7.456;2023-06-14T07:17:35;26.36;35.94
22917;DHT22;11624;53.250;7.456;2023-06-14T07:20:05;26.47;35.52
22917;DHT22;11624;53.250;7.456;2023-06-14T07:22:39;26.60;35.15
22917;DHT22;11624;53.250;7.456;2023-06-14T07:25:09;26.75;35.07
22917;DHT22;11624;53.250;7.456;2023-06-14T07:27:42;26.81;34.95
22917;DHT22;11624;53.250;7.456;2023-06-14T07:30:11;26.98;34.37
22917;DHT22;11624;53.250;7.456;2023-06-14T07:32:39;27.04;34.03
22917;DHT22;11624;53.250;7.456;2023-06-14T07:35:08;27.11;33.79
22917;DHT22;11624;53.250;7.456;2023-06-14T07:37:36;27.26;34.04
22917;DHT22;11624;53.250;7.456;2023-06-14T07:40:05;27.54;33.79
22917;DHT22;11624;53.250;7.456;2023-06-14T07:42:34;27.82;33.06
22917;DHT22;11624;53.250;7.456;2023-06-14T07:45:05;28.02;32.96
22917;DHT22;11624;53.250;7.456;2023-06-14T07:47:33;28.13;31.81
22917;DHT22;11624;53.250;7.456;2023-06-14T07:50:02;28.21;31.35
22917;DHT22;11624;53.250;7.456;2023-06-14T07:52:32;28.37;31.01
22917;DHT22;11624;53.250;7.456;2023-06-14T07:55:00;28.53;30.34
22917;DHT22;11624;53.250;7.456;2023-06-14T07:57:28;28.61;30.52
22917;DHT22;11624;53.250;7.456;2023-06-14T07:59:56;28.83;30.62
22917;DHT22;11624;53.250;7.456;2023-06-14T08:02:26;28.98;29.16
22917;DHT22;11624;53.250;7.456;2023-06-14T08:04:54;29.06;29.63
22917;DHT22;11624;53.250;7.456;2023-06-14T08:07:23;29.11;29.07
22917;DHT22;11624;53.250;7.456;2023-06-14T08:09:51;29.24;29.39
22917;DHT22;11624;53.250;7.456;2023-06-14T08:12:19;29.41;29.13
22917;DHT22;11624;53.250;7.456;2023-06-14T08:14:47;29.66;28.62
22917;DHT22;11624;53.250;7.456;2023-06-14T08:17:28;29.91;28.11
22917;DHT22;11624;53.250;7.456;2023-06-14T08:19:56;30.11;27.43
22917;DHT22;11624;53.250;7.456;2023-06-14T08:22:25;30.33;27.90
22917;DHT22;11624;53.250;7.456;2023-06-14T08:24:54;30.61;27.29
22917;DHT22;11624;53.250;7.456;2023-06-14T08:27:22;30.82;26.99
22917;DHT22;11624;53.250;7.456;2023-06-14T08:29:50;31.06;26.64
22917;DHT22;11624;53.250;7.456;2023-06-14T08:32:19;31.25;26.33
22917;DHT22;11624;53.250;7.456;2023-06-14T08:34:48;31.33;25.28
22917;DHT22;11624;53.250;7.456;2023-06-14T08:37:31;31.35;25.29
22917;DHT22;11624;53.250;7.456;2023-06-14T08:40:00;31.40;26.27
22917;DHT22;11624;53.250;7.456;2023-06-14T08:42:33;31.55;25.57
22917;DHT22;11624;53.250;7.456;2023-06-14T08:45:03;31.75;25.75
22917;DHT22;11624;53.250;7.456;2023-06-14T08:47:32;31.94;24.61
22917;DHT22;11624;53.250;7.456;2023-06-14T08:50:09;31.97;25.54
22917;DHT22;11624;53.250;7.456;2023-06-14T08:52:54;32.25;24.53
22917;DHT22;11624;53.250;7.456;2023-06-14T08:55:24;32.26;23.74
22917;DHT22;11624;53.250;7.456;2023-06-14T08:57:55;32.23;24.49
22917;DHT22;11624;53.250;7.456;2023-06-14T09:00:24;32.27;24.53
22917;DHT22;11624;53.250;7.456;2023-06-14T09:02:53;32.24;24.62
22917;DHT22;11624;53.250;7.456;2023-06-14T09:05:27;32.35;25.02
22917;DHT22;11624;53.250;7.456;2023-06-14T09:07:55;32.42;24.01
22917;DHT22;11624;53.250;7.456;2023-06-14T09:10:32;32.41;23.61
22917;DHT22;11624;53.250;7.456;2023-06-14T09:13:01;32.34;23.98
22917;DHT22;11624;53.250;7.456;2023-06-14T09:15:30;32.35;24.58
22917;DHT22;11624;53.250;7.456;2023-06-14T09:18:00;32.48;23.68
22917;DHT22;11624;53.250;7.456;2023-06-14T09:20:31;32.49;23.77
22917;DHT22;11624;53.250;7.456;2023-06-14T09:23:00;32.42;23.96
22917;DHT22;11624;53.250;7.456;2023-06-14T09:25:28;32.49;23.53
22917;DHT22;11624;53.250;7.456;2023-06-14T09:28:06;32.52;23.44
22917;DHT22;11624;53.250;7.456;2023-06-14T09:30:36;32.57;22.82
22917;DHT22;11624;53.250;7.456;2023-06-14T09:33:04;32.67;22.70
22917;DHT22;11624;53.250;7.456;2023-06-14T09:35:34;32.76;22.27
22917;DHT22;11624;53.250;7.456;2023-06-14T09:38:03;32.69;22.65
22917;DHT22;11624;53.250;7.456;2023-06-14T09:40:34;32.63;21.97
22917;DHT22;11624;53.250;7.456;2023-06-14T09:43:05;32.70;21.70
22917;DHT22;11624;53.250;7.456;2023-06-14T09:45:35;32.74;22.32
22917;DHT22;11624;53.250;7.456;2023-06-14T09:48:06;32.94;22.24
22917;DHT22;11624;53.250;7.456;2023-06-14T09:50:37;33.20;21.74
22917;DHT22;11624;53.250;7.456;2023-06-14T09:53:07;33.36;21.42
22917;DHT22;11624;53.250;7.456;2023-06-14T09:55:37;33.55;20.73
22917;DHT22;11624;53.250;7.456;2023-06-14T09:58:07;33.66;21.31
22917;DHT22;11624;53.250;7.456;2023-06-14T10:00:36;33.79;20.73
22917;DHT22;11624;53.250;7.456;2023-06-14T10:03:08;33.83;20.31
22917;DHT22;11624;53.250;7.456;2023-06-14T10:05:43;33.80;19.44
22917;DHT22;11624;53.250;7.456;2023-06-14T10:08:14;33.52;20.34
22917;DHT22;11624;53.250;7.456;2023-06-14T10:10:43;33.61;20.92
22917;DHT22;11624;53.250;7.456;2023-06-14T10:13:15;33.82;19.61
22917;DHT22;11624;53.250;7.456;2023-06-14T10:15:54;33.89;20.02
22917;DHT22;11624;53.250;7.456;2023-06-14T10:18:30;34.05;19.37
22917;DHT22;11624;53.250;7.456;2023-06-14T10:21:08;34.02;20.05
22917;DHT22;11624;53.250;7.456;2023-06-14T10:23:38;34.10;19.81
22917;DHT22;11624;53.250;7.456;2023-06-14T10:26:08;34.15;18.87
22917;DHT22;11624;53.250;7.456;2023-06-14T10:28:37;34.22;19.42
22917;DHT22;11624;53.250;7.456;2023-06-14T10:31:06;34.48;19.30
22917;DHT22;11624;53.250;7.456;2023-06-14T10:33:35;34.68;18.64
22917;DHT22;11624;53.250;7.456;2023-06-14T10:36:26;34.83;19.57
22917;DHT22;11624;53.250;7.456;2023-06-14T10:38:58;34.93;18.50
22917;DHT22;11624;53.250;7.456;2023-06-14T10:41:27;35.04;18.80
22917;DHT22;11624;53.250;7.456;2023-06-14T10:44:39;35.00;18.19
22917;DHT22;11624;53.250;7.456;2023-06-14T10:47:09;34.84;18.12
22917;DHT22;11624;53.250;7.456;2023-06-14T10:49:40;34.85;19.60
22917;DHT22;11624;53.250;7.456;2023-06-14T10:52:12;35.12;18.40
22917;DHT22;11624;53.250;7.456;2023-06-14T10:55:03;35.26;18.54
22917;DHT22;11624;53.250;7.456;2023-06-14T10:57:33;35.45;18.09
22917;DHT22;11624;53.250;7.456;2023-06-14T11:00:06;35.51;18.03
22917;DHT22;11624;53.250;7.456;2023-06-14T11:02:55;35.67;17.57
22917;DHT22;11624;53.250;7.456;2023-06-14T11:05:28;35.82;17.53
22917;DHT22;11624;53.250;7.456;2023-06-14T11:08:31;35.71;17.62
22917;DHT22;11624;53.250;7.456;2023-06-14T11:11:05;35.67;17.79
22917;DHT22;11624;53.250;7.456;2023-06-14T11:13:34;35.64;17.29
22917;DHT22;11624;53.250;7.456;2023-06-14T11:16:10;35.78;18.57
22917;DHT22;11624;53.250;7.456;2023-06-14T11:18:39;36.10;17.73
22917;DHT22;11624;53.250;7.456;2023-06-14T11:21:07;36.22;17.11
22917;DHT22;11624;53.250;7.456;2023-06-14T11:23:37;36.31;16.88
22917;DHT22;11624;53.250;7.456;2023-06-14T11:26:05;36.30;16.25
22917;DHT22;11624;53.250;7.456;2023-06-14T11:28:37;36.28;16.35
22917;DHT22;11624;53.250;7.456;2023-06-14T11:31:07;36.24;16.79
22917;DHT22;11624;53.250;7.456;2023-06-14T11:33:35;36.25;16.79
22917;DHT22;11624;53.250;7.456;2023-06-14T11:36:05;36.28;16.80
22917;DHT22;11624;53.250;7.456;2023-06-14T11:38:36;36.31;16.31
22917;DHT22;11624;53.250;7.456;2023-06-14T11:41:06;36.15;16.45
22917;DHT22;11624;53.250;7.456;2023-06-14T11:43:34;36.09;17.03
22917;DHT22;11624;53.250;7.456;2023-06-14T11:46:03;36.42;15.88
22917;DHT22;11624;53.250;7.456;2023-06-14T11:48:37;36.37;15.99
22917;DHT22;11624;53.250;7.456;2023-06-14T11:51:06;36.48;15.97
22917;DHT22;11624;53.250;7.456;2023-06-14T11:53:35;36.83;16.13
22917;DHT22;11624;53.250;7.456;2023-06-14T11:56:04;37.20;14.60
22917;DHT22;11624;53.250;7.456;2023-06-14T11:58:33;37.23;15.14
22917;DHT22;11624;53.250;7.456;2023-06-14T12:01:03;37.21;14.95
22917;DHT22;11624;53.250;7.456;2023-06-14T12:03:31;37.32;15.01
22917;DHT22;11624;53.250;7.456;2023-06-14T12:06:05;37.45;15.06
22917;DHT22;11624;53.250;7.456;2023-06-14T12:08:35;37.21;15.15
22917;DHT22;11624;53.250;7.456;2023-06-14T12:11:11;37.25;14.24
22917;DHT22;11624;53.250;7.456;2023-06-14T12:13:42;36.96;15.55
22917;DHT22;11624;53.250;7.456;2023-06-14T12:16:11;37.21;15.72
22917;DHT22;11624;53.250;7.456;2023-06-14T12:18:40;37.23;15.54
22917;DHT22;11624;53.250;7.456;2023-06-14T12:21:10;37.35;15.39
22917;DHT22;11624;53.250;7.456;2023-06-14T12:23:39;37.31;15.04
22917;DHT22;11624;53.250;7.456;2023-06-14T12:26:08;37.22;15.40
22917;DHT22;11624;53.250;7.456;2023-06-14T12:28:40;36.75;15.29
22917;DHT22;11624;53.250;7.456;2023-06-14T12:31:10;36.02;15.86
22917;DHT22;11624;53.250;7.456;2023-06-14T12:33:39;35.70;17.33
22917;DHT22;11624;53.250;7.456;2023-06-14T12:36:09;35.92;17.35
22917;DHT22;11624;53.250;7.456;2023-06-14T12:38:37;36.31;17.05
22917;DHT22;11624;53.250;7.456;2023-06-14T12:41:05;36.51;15.60
22917;DHT22;11624;53.250;7.456;2023-06-14T12:43:34;36.15;16.00
22917;DHT22;11624;53.250;7.456;2023-06-14T12:46:02;35.71;17.38
22917;DHT22;11624;53.250;7.456;2023-06-14T12:48:32;35.99;17.06
22917;DHT22;11624;53.250;7.456;2023-06-14T12:51:01;36.39;17.28
22917;DHT22;11624;53.250;7.456;2023-06-14T12:53:29;36.88;15.76
22917;DHT22;11624;53.250;7.456;2023-06-14T12:55:57;36.77;15.09
22917;DHT22;11624;53.250;7.456;2023-06-14T12:58:25;36.78;15.82
22917;DHT22;11624;53.250;7.456;2023-06-14T13:00:53;37.10;14.74
22917;DHT22;11624;53.250;7.456;2023-06-14T13:03:21;37.00;15.04
22917;DHT22;11624;53.250;7.456;2023-06-14T13:05:51;37.18;15.52
22917;DHT22;11624;53.250;7.456;2023-06-14T13:08:19;36.96;15.87
22917;DHT22;11624;53.250;7.456;2023-06-14T13:10:51;36.43;15.92
22917;DHT22;11624;53.250;7.456;2023-06-14T13:13:19;36.22;16.24
22917;DHT22;11624;53.250;7.456;2023-06-14T13:15:47;36.28;16.05
22917;DHT22;11624;53.250;7.456;2023-06-14T13:18:16;36.44;15.86
22917;DHT22;11624;53.250;7.456;2023-06-14T13:20:45;36.57;16.06
22917;DHT22;11624;53.250;7.456;2023-06-14T13:23:16;36.58;16.17
22917;DHT22;11624;53.250;7.456;2023-06-14T13:25:44;36.49;16.09
22917;DHT22;11624;53.250;7.456;2023-06-14T13:28:12;36.46;15.37
22917;DHT22;11624;53.250;7.456;2023-06-14T13:30:40;36.27;16.16
22917;DHT22;11624;53.250;7.456;2023-06-14T13:33:08;35.92;16.05
22917;DHT22;11624;53.250;7.456;2023-06-14T13:35:36;35.57;16.76
22917;DHT22;11624;53.250;7.456;2023-06-14T13:38:04;35.19;16.61
22917;DHT22;11624;53.250;7.456;2023-06-14T13:40:34;34.86;17.41
22917;DHT22;11624;53.250;7.456;2023-06-14T13:43:02;34.84;17.09
22917;DHT22;11624;53.250;7.456;2023-06-14T13:45:30;35.11;17.31
22917;DHT22;11624;53.250;7.456;2023-06-14T13:47:58;35.55;17.29
22917;DHT22;11624;53.250;7.456;2023-06-14T13:50:27;35.98;16.09
22917;DHT22;11624;53.250;7.456;2023-06-14T13:52:55;36.19;15.97
22917;DHT22;11624;53.250;7.456;2023-06-14T13:55:23;36.57;15.60
22917;DHT22;11624;53.250;7.456;2023-06-14T13:57:53;36.40;14.32
22917;DHT22;11624;53.250;7.456;2023-06-14T14:00:21;35.89;15.35
22917;DHT22;11624;53.250;7.456;2023-06-14T14:02:50;36.04;15.45
22917;DHT22;11624;53.250;7.456;2023-06-14T14:05:18;36.22;17.12
22917;DHT22;11624;53.250;7.456;2023-06-14T14:07:47;36.59;16.06
22917;DHT22;11624;53.250;7.456;2023-06-14T14:10:15;36.69;15.32
22917;DHT22;11624;53.250;7.456;2023-06-14T14:12:45;36.74;16.14
22917;DHT22;11624;53.250;7.456;2023-06-14T14:15:17;36.98;15.69
22917;DHT22;11624;53.250;7.456;2023-06-14T14:17:46;37.22;14.98
22917;DHT22;11624;53.250;7.456;2023-06-14T14:20:15;37.45;15.17
22917;DHT22;11624;53.250;7.456;2023-06-14T14:22:44;37.50;15.09
22917;DHT22;11624;53.250;7.456;2023-06-14T14:25:12;37.46;15.05
22917;DHT22;11624;53.250;7.456;2023-06-14T14:27:41;37.74;14.79
22917;DHT22;11624;53.250;7.456;2023-06-14T14:30:10;37.85;14.93
22917;DHT22;11624;53.250;7.456;2023-06-14T14:32:40;37.51;14.90
22917;DHT22;11624;53.250;7.456;2023-06-14T14:35:08;37.16;15.42
22917;DHT22;11624;53.250;7.456;2023-06-14T14:37:37;37.04;15.35
22917;DHT22;11624;53.250;7.456;2023-06-14T14:40:07;36.98;16.00
22917;DHT22;11624;53.250;7.456;2023-06-14T14:42:36;37.01;15.66
22917;DHT22;11624;53.250;7.456;2023-06-14T14:45:06;37.17;15.25
22917;DHT22;11624;53.250;7.456;2023-06-14T14:47:34;37.22;14.34
22917;DHT22;11624;53.250;7.456;2023-06-14T14:50:05;37.06;14.61
22917;DHT22;11624;53.250;7.456;2023-06-14T14:52:35;36.96;14.81
22917;DHT22;11624;53.250;7.456;2023-06-14T14:55:04;37.04;15.11
22917;DHT22;11624;53.250;7.456;2023-06-14T14:57:33;37.34;14.84
22917;DHT22;11624;53.250;7.456;2023-06-14T15:00:04;37.51;14.98
22917;DHT22;11624;53.250;7.456;2023-06-14T15:02:32;37.62;14.42
22917;DHT22;11624;53.250;7.456;2023-06-14T15:05:01;37.48;14.25
22917;DHT22;11624;53.250;7.456;2023-06-14T15:07:31;37.05;15.13
22917;DHT22;11624;53.250;7.456;2023-06-14T15:10:00;36.72;15.81
22917;DHT22;11624;53.250;7.456;2023-06-14T15:12:29;36.31;15.71
22917;DHT22;11624;53.250;7.456;2023-06-14T15:14:57;36.19;15.91
22917;DHT22;11624;53.250;7.456;2023-06-14T15:17:26;36.33;16.03
22917;DHT22;11624;53.250;7.456;2023-06-14T15:19:54;36.28;15.81
22917;DHT22;11624;53.250;7.456;2023-06-14T15:22:22;36.14;16.09
22917;DHT22;11624;53.250;7.456;2023-06-14T15:24:52;36.00;16.60
22917;DHT22;11624;53.250;7.456;2023-06-14T15:27:21;35.89;16.74
22917;DHT22;11624;53.250;7.456;2023-06-14T15:29:49;35.82;17.51
22917;DHT22;11624;53.250;7.456;2023-06-14T15:32:17;35.92;17.76
22917;DHT22;11624;53.250;7.456;2023-06-14T15:34:46;36.00;16.97
22917;DHT22;11624;53.250;7.456;2023-06-14T15:37:15;36.15;17.29
22917;DHT22;11624;53.250;7.456;2023-06-14T15:39:43;36.14;16.35
22917;DHT22;11624;53.250;7.456;2023-06-14T15:42:13;36.04;15.87
22917;DHT22;11624;53.250;7.456;2023-06-14T15:44:41;36.01;16.90
22917;DHT22;11624;53.250;7.456;2023-06-14T15:47:10;36.03;16.13